Time;durP1;ratioP1;P1;durP2;ratioP2;P2;SDS_P1;SDS_P2;PMS_P1;PMS_P2;Temp;Humidity;BMP_temperature;BMP_pressure;BME280_temperature;BME280_humidity;BME280_pressure;Samples;Min_cycle;Max_cycle;Signal;HPM_P1;HPM_P2
2022/08/19 00:01:58;;;;;;;13.98;11.60;;;;;;;21.44;67.72;100378.91;5032440;28;20529;-65
2022/08/19 00:04:32;;;;;;;12.43;11.13;;;;;;;21.33;69.04;100379.78;5031317;28;20120;-64
2022/08/19 00:06:59;;;;;;;12.60;10.52;;;;;;;21.51;66.67;100365.97;5031468;28;20493;-64
2022/08/19 00:09:27;;;;;;;15.23;9.85;;;;;;;21.58;64.62;100354.91;5032100;28;20135;-63
2022/08/19 00:11:55;;;;;;;11.55;9.77;;;;;;;21.76;64.46;100362.91;5033237;28;20068;-65
2022/08/19 00:14:24;;;;;;;13.88;12.32;;;;;;;21.66;66.83;100367.34;5031947;28;20049;-63
2022/08/19 00:16:53;;;;;;;13.02;11.65;;;;;;;21.60;65.86;100369.16;5031900;28;20033;-64
2022/08/19 00:19:22;;;;;;;14.57;13.05;;;;;;;21.45;67.56;100366.09;5031722;28;20049;-65
2022/08/19 00:21:48;;;;;;;16.40;12.63;;;;;;;21.48;66.77;100371.06;5031371;28;20073;-65
2022/08/19 00:24:15;;;;;;;14.60;11.90;;;;;;;21.59;66.86;100375.66;5032080;28;20063;-65
2022/08/19 00:26:43;;;;;;;14.20;12.70;;;;;;;21.52;67.73;100369.50;5031182;28;20077;-64
2022/08/19 00:29:12;;;;;;;16.13;13.60;;;;;;;21.36;68.41;100374.66;5030918;28;20045;-65
2022/08/19 00:31:41;;;;;;;16.20;12.93;;;;;;;21.33;68.04;100374.31;5031212;28;20049;-64
2022/08/19 00:34:07;;;;;;;14.88;12.93;;;;;;;21.34;68.36;100374.06;5031342;28;20048;-65
2022/08/19 00:36:34;;;;;;;15.13;12.90;;;;;;;21.45;67.95;100361.47;5031516;28;20120;-64
2022/08/19 00:39:01;;;;;;;14.13;12.50;;;;;;;21.30;68.55;100358.44;5030973;28;20069;-65
2022/08/19 00:41:28;;;;;;;13.93;12.50;;;;;;;21.40;68.20;100353.19;5030826;28;20075;-64
2022/08/19 00:44:13;;;;;;;14.80;13.20;;;;;;;21.19;68.52;100349.19;5031049;28;20133;-64
2022/08/19 00:46:42;;;;;;;17.08;12.18;;;;;;;21.17;68.08;100342.31;5030850;28;20111;-64
2022/08/19 00:49:17;;;;;;;17.52;12.00;;;;;;;21.16;67.75;100329.75;5031396;28;20124;-64
2022/08/19 00:51:47;;;;;;;13.35;11.95;;;;;;;21.12;68.10;100326.66;5030495;28;20129;-64
2022/08/19 00:54:14;;;;;;;14.60;12.43;;;;;;;21.13;68.39;100337.34;5030918;28;20132;-65
2022/08/19 00:56:42;;;;;;;17.08;12.95;;;;;;;21.07;69.20;100337.44;5030480;28;20124;-65
2022/08/19 00:59:08;;;;;;;13.48;9.93;;;;;;;21.13;66.97;100342.78;5030178;28;20132;-64
2022/08/19 01:01:41;;;;;;;15.02;12.20;;;;;;;21.27;66.44;100340.63;5031400;28;20095;-65
2022/08/19 01:04:08;;;;;;;15.93;10.50;;;;;;;21.42;65.52;100351.03;5030903;28;20095;-65
2022/08/19 01:07:24;;;;;;;17.08;11.48;;;;;;;21.41;66.83;100343.09;5030331;28;20436;-65
2022/08/19 01:09:51;;;;;;;12.93;11.35;;;;;;;21.34;66.71;100354.97;5030676;28;20449;-65
2022/08/19 01:12:18;;;;;;;15.23;10.70;;;;;;;21.18;67.79;100358.44;5022187;28;20128;-64
2022/08/19 01:14:47;;;;;;;14.80;11.13;;;;;;;21.39;66.19;100357.00;5030439;28;20489;-64
2022/08/19 01:17:15;;;;;;;13.73;11.88;;;;;;;21.20;67.86;100355.47;5030190;28;20132;-64
2022/08/19 01:19:44;;;;;;;14.60;11.65;;;;;;;21.13;67.77;100353.69;5013160;28;20069;-64
2022/08/19 01:22:23;;;;;;;14.27;11.98;;;;;;;20.92;68.62;100346.94;5030004;28;20052;-63
2022/08/19 01:24:57;;;;;;;14.57;12.40;;;;;;;20.75;68.93;100353.34;5028763;28;20045;-63
2022/08/19 01:27:25;;;;;;;16.52;13.13;;;;;;;20.80;69.05;100359.75;5030860;28;20045;-64
2022/08/19 01:29:51;;;;;;;14.40;12.20;;;;;;;20.90;68.32;100353.69;5031949;28;20107;-64
2022/08/19 01:32:19;;;;;;;15.50;13.25;;;;;;;20.87;69.28;100363.19;5029731;28;20052;-64
2022/08/19 01:35:01;;;;;;;17.00;13.70;;;;;;;20.86;69.18;100375.13;5029855;28;20065;-63
2022/08/19 01:37:30;;;;;;;14.45;11.70;;;;;;;20.87;68.99;100374.09;5029677;28;20403;-63
2022/08/19 01:39:57;;;;;;;17.92;14.32;;;;;;;20.75;70.14;100370.53;5030007;28;20085;-63
2022/08/19 01:42:24;;;;;;;19.40;15.07;;;;;;;20.71;70.69;100368.50;5031457;28;20053;-63
2022/08/19 01:44:56;;;;;;;25.17;16.73;;;;;;;20.60;72.00;100367.44;5030740;28;20073;-63
2022/08/19 01:47:23;;;;;;;23.52;16.77;;;;;;;20.67;72.14;100371.69;5030653;28;20120;-64
2022/08/19 01:49:49;;;;;;;22.40;16.70;;;;;;;21.17;70.51;100381.31;5030816;28;20457;-65
2022/08/19 01:52:16;;;;;;;22.77;16.23;;;;;;;20.75;72.30;100396.94;5029761;28;20076;-63
2022/08/19 01:54:42;;;;;;;22.52;14.98;;;;;;;21.14;71.18;100382.63;5030378;28;20095;-64
2022/08/19 01:57:12;;;;;;;20.58;14.95;;;;;;;21.20;70.61;100391.75;5034261;28;20099;-65
2022/08/19 01:59:41;;;;;;;24.73;17.80;;;;;;;20.83;71.63;100402.03;5033869;28;20136;-65
2022/08/19 02:02:08;;;;;;;21.90;17.65;;;;;;;20.53;73.47;100399.41;5034007;28;20124;-63
2022/08/19 02:04:35;;;;;;;23.05;16.70;;;;;;;20.46;74.04;100379.63;5034315;28;20068;-65
2022/08/19 02:07:02;;;;;;;24.70;18.17;;;;;;;20.54;74.02;100377.38;5034550;28;20064;-65
2022/08/19 02:09:30;;;;;;;18.15;12.73;;;;;;;20.66;71.23;100350.13;5034103;28;20073;-64
2022/08/19 02:11:56;;;;;;;17.95;11.55;;;;;;;21.14;67.90;100349.06;5034558;28;20408;-64
2022/08/19 02:14:23;;;;;;;18.48;11.38;;;;;;;21.42;67.35;100337.38;5026290;28;20045;-65
2022/08/19 02:16:50;;;;;;;15.35;10.82;;;;;;;21.39;67.38;100329.69;5034482;28;20136;-65
2022/08/19 02:19:16;;;;;;;17.65;12.05;;;;;;;21.19;67.60;100311.00;5033839;28;20145;-65
2022/08/19 02:21:43;;;;;;;18.08;11.52;;;;;;;21.32;65.98;100302.56;5034994;28;20128;-65
2022/08/19 02:24:10;;;;;;;16.20;10.43;;;;;;;21.48;65.38;100290.03;5033980;28;20073;-64
2022/08/19 02:26:36;;;;;;;15.93;11.98;;;;;;;21.23;67.16;100287.63;5034033;28;20045;-64
2022/08/19 02:29:03;;;;;;;18.58;11.93;;;;;;;21.08;68.12;100279.94;5033525;28;20125;-64
2022/08/19 02:31:30;;;;;;;19.00;12.38;;;;;;;21.00;68.94;100272.09;5034409;28;20055;-64
2022/08/19 02:33:57;;;;;;;16.10;11.75;;;;;;;21.08;68.26;100268.19;5016469;28;20448;-66
2022/08/19 02:36:24;;;;;;;22.45;13.23;;;;;;;21.49;67.93;100269.84;5034268;28;20068;-65
2022/08/19 02:38:52;;;;;;;14.90;11.27;;;;;;;21.55;65.22;100251.66;5033091;28;20120;-64
2022/08/19 02:41:27;;;;;;;16.00;10.30;;;;;;;21.40;65.18;100240.47;5033995;28;20052;-65
2022/08/19 02:44:00;;;;;;;14.90;11.82;;;;;;;21.36;67.36;100235.50;5034044;28;20394;-65
2022/08/19 02:46:49;;;;;;;16.38;10.75;;;;;;;21.24;66.45;100234.72;5019098;28;20411;-66
2022/08/19 02:49:18;;;;;;;13.35;10.32;;;;;;;21.30;66.20;100236.47;5025441;28;20136;-66
2022/08/19 02:51:45;;;;;;;19.40;13.73;;;;;;;21.08;68.19;100254.56;5033271;28;20124;-66
2022/08/19 02:54:13;;;;;;;16.42;12.73;;;;;;;20.98;68.57;100249.72;5032611;28;20053;-66
2022/08/19 02:56:41;;;;;;;17.88;14.25;;;;;;;20.77;69.61;100262.06;5033443;28;20532;-66
2022/08/19 02:59:10;;;;;;;13.10;11.45;;;;;;;20.57;69.94;100261.63;5032963;28;20072;-66
2022/08/19 03:01:40;;;;;;;15.23;10.60;;;;;;;20.88;66.85;100257.69;5032736;28;20052;-65
2022/08/19 03:04:08;;;;;;;17.88;13.85;;;;;;;20.79;69.20;100270.00;5033816;28;20045;-66
2022/08/19 03:06:38;;;;;;;16.73;14.48;;;;;;;20.67;69.87;100275.47;5033106;28;20045;-66
2022/08/19 03:09:04;;;;;;;14.63;12.30;;;;;;;20.53;70.33;100276.78;5032774;28;20129;-65
2022/08/19 03:11:32;;;;;;;14.70;12.82;;;;;;;20.61;68.88;100270.97;5032485;28;20137;-65
2022/08/19 03:14:00;;;;;;;26.10;11.60;;;;;;;20.77;68.70;100272.16;5031671;28;20140;-65
2022/08/19 03:16:28;;;;;;;14.55;12.90;;;;;;;20.76;68.71;100276.75;5039756;28;20052;-65
2022/08/19 03:18:59;;;;;;;15.70;11.68;;;;;;;20.98;68.05;100273.44;5033514;28;20175;-65
2022/08/19 03:21:29;;;;;;;17.05;11.50;;;;;;;20.93;67.39;100271.41;5032706;28;20067;-65
2022/08/19 03:23:57;;;;;;;12.40;10.68;;;;;;;20.86;68.36;100276.97;5032796;28;20485;-65
2022/08/19 03:26:24;;;;;;;14.13;11.00;;;;;;;20.96;66.62;100264.66;5032420;28;20077;-65
2022/08/19 03:28:51;;;;;;;12.27;10.55;;;;;;;21.06;67.17;100264.88;5031850;28;21090;-65
2022/08/19 03:31:26;;;;;;;15.60;10.98;;;;;;;21.07;66.97;100261.06;5033092;28;20047;-65
2022/08/19 03:34:17;;;;;;;16.10;11.07;;;;;;;21.07;66.34;100244.69;5032438;28;20408;-65
2022/08/19 03:36:46;;;;;;;21.05;16.63;;;;;;;21.02;68.31;100250.06;5032626;28;20045;-65
2022/08/19 03:39:12;;;;;;;20.33;12.43;;;;;;;20.89;67.80;100253.88;5032590;28;20054;-65
2022/08/19 03:41:42;;;;;;;16.73;11.55;;;;;;;21.17;66.49;100255.03;5032225;28;20069;-65
2022/08/19 03:44:17;;;;;;;16.08;11.50;;;;;;;21.13;67.02;100251.94;5030522;28;20048;-65
2022/08/19 03:46:47;;;;;;;15.10;10.90;;;;;;;21.10;66.90;100257.84;5031737;28;20037;-65
2022/08/19 03:49:14;;;;;;;16.85;12.27;;;;;;;21.10;66.38;100258.69;5032703;28;20072;-65
2022/08/19 03:51:44;;;;;;;16.52;13.73;;;;;;;20.98;68.29;100260.63;5032563;28;20046;-65
2022/08/19 03:54:13;;;;;;;13.32;11.15;;;;;;;20.98;67.42;100263.34;5031943;28;20589;-65
2022/08/19 03:56:43;;;;;;;17.20;11.65;;;;;;;20.99;67.28;100258.72;5037855;28;20041;-65
2022/08/19 03:59:14;;;;;;;17.10;13.27;;;;;;;20.91;67.34;100260.75;5032789;28;20492;-65
2022/08/19 04:01:40;;;;;;;17.70;12.73;;;;;;;21.41;65.66;100272.13;5031198;28;20065;-65
2022/08/19 04:04:08;;;;;;;15.18;12.45;;;;;;;21.41;65.10;100261.22;5031974;28;20077;-65
2022/08/19 04:06:36;;;;;;;12.98;10.68;;;;;;;21.50;64.42;100263.31;5032332;28;20137;-65
2022/08/19 04:09:08;;;;;;;13.45;12.05;;;;;;;21.55;65.00;100257.94;5032382;28;20041;-65
2022/08/19 04:11:41;;;;;;;11.50;9.68;;;;;;;21.45;64.63;100256.94;5031443;28;20401;-64
2022/08/19 04:14:17;;;;;;;19.25;10.57;;;;;;;21.43;65.25;100270.84;5032217;28;20041;-64
2022/08/19 04:16:46;;;;;;;17.02;11.95;;;;;;;21.11;66.56;100275.91;5031665;28;20129;-64
2022/08/19 04:19:14;;;;;;;13.20;11.13;;;;;;;21.25;65.01;100276.44;5029271;28;20132;-65
2022/08/19 04:21:43;;;;;;;16.58;11.02;;;;;;;21.20;66.86;100284.53;5032552;28;20124;-64
2022/08/19 04:24:10;;;;;;;16.20;12.18;;;;;;;21.16;66.56;100281.47;5032062;28;20068;-64
2022/08/19 04:26:38;;;;;;;16.88;11.20;;;;;;;21.01;67.21;100281.97;5031618;28;20458;-64
2022/08/19 04:29:12;;;;;;;15.40;13.02;;;;;;;21.01;67.51;100294.75;5031418;28;20468;-64
2022/08/19 04:31:40;;;;;;;16.10;10.85;;;;;;;21.00;67.03;100296.63;5031970;28;20037;-65
2022/08/19 04:34:12;;;;;;;14.63;11.80;;;;;;;20.99;67.03;100292.25;5031121;28;20052;-65
2022/08/19 04:36:41;;;;;;;14.73;12.00;;;;;;;21.07;66.75;100291.88;5037881;28;20136;-65
2022/08/19 04:39:14;;;;;;;15.15;10.93;;;;;;;21.10;66.66;100287.84;5031801;28;20069;-65
2022/08/19 04:44:30;;;;;;;11.82;10.05;;;;;;;21.13;65.43;100280.06;5029912;28;20452;-65
2022/08/19 04:46:58;;;;;;;12.98;11.07;;;;;;;21.31;66.42;100273.59;5030891;28;20095;-65
2022/08/19 04:49:27;;;;;;;13.35;12.02;;;;;;;21.21;66.97;100283.47;5021482;28;20095;-65
2022/08/19 04:51:54;;;;;;;15.02;12.07;;;;;;;21.11;66.52;100286.81;5031707;28;20136;-65
2022/08/19 04:54:24;;;;;;;18.65;14.05;;;;;;;21.13;66.93;100284.69;5024955;28;20128;-65
2022/08/19 04:57:08;;;;;;;25.35;12.40;;;;;;;21.12;66.64;100283.03;5030829;28;20092;-65
2022/08/19 04:59:36;;;;;;;14.45;11.25;;;;;;;21.04;66.92;100286.94;5037102;28;20041;-65
2022/08/19 05:02:03;;;;;;;17.48;12.40;;;;;;;21.26;66.80;100294.50;5031289;28;20038;-65
2022/08/19 05:04:31;;;;;;;15.40;13.18;;;;;;;21.40;66.60;100275.94;5031342;28;20051;-65
2022/08/19 05:07:00;;;;;;;18.95;10.93;;;;;;;21.45;64.73;100281.50;5030756;28;20052;-65
2022/08/19 05:09:29;;;;;;;14.95;9.98;;;;;;;21.24;66.09;100269.34;5027958;28;20041;-65
2022/08/19 05:12:17;;;;;;;15.48;11.93;;;;;;;21.43;65.52;100270.00;5035479;28;20045;-65
2022/08/19 05:14:45;;;;;;;17.73;12.70;;;;;;;21.19;66.62;100264.63;5030816;28;20076;-65
2022/08/19 05:17:12;;;;;;;13.70;12.18;;;;;;;21.42;66.17;100262.88;5030342;28;20462;-65
2022/08/19 05:22:46;;;;;;;13.90;12.38;;;;;;;21.27;66.67;100255.22;5030839;28;20117;-65
2022/08/19 05:25:18;;;;;;;13.98;11.65;;;;;;;21.07;66.73;100258.31;5030245;28;20053;-65
2022/08/19 05:27:45;;;;;;;14.60;11.15;;;;;;;20.74;68.34;100248.91;5029781;28;20444;-65
2022/08/19 05:30:12;;;;;;;18.83;10.85;;;;;;;21.42;65.82;100260.16;5045379;28;20112;-65
2022/08/19 05:32:39;;;;;;;14.57;11.43;;;;;;;21.14;65.73;100250.88;5030584;28;20140;-64
2022/08/19 05:35:06;;;;;;;12.20;10.13;;;;;;;21.35;65.99;100257.56;5025704;28;20444;-64
2022/08/19 05:37:33;;;;;;;15.98;10.48;;;;;;;21.73;64.08;100258.81;5031320;28;20478;-63
2022/08/19 05:39:59;;;;;;;16.63;10.60;;;;;;;21.74;63.92;100266.78;5030243;28;20045;-64
2022/08/19 05:42:26;;;;;;;15.75;11.40;;;;;;;21.74;64.31;100266.78;5030086;28;20049;-65
2022/08/19 05:44:53;;;;;;;20.75;12.73;;;;;;;21.90;63.37;100272.53;5023867;28;20049;-63
2022/08/19 05:47:21;;;;;;;13.75;9.40;;;;;;;21.85;62.61;100273.28;5029879;28;20060;-64
2022/08/19 05:49:49;;;;;;;15.60;10.48;;;;;;;21.92;62.55;100264.94;5029724;28;20492;-64
2022/08/19 05:52:17;;;;;;;15.07;10.13;;;;;;;21.78;62.58;100256.19;5030413;28;20463;-65
2022/08/19 05:54:47;;;;;;;17.60;10.30;;;;;;;21.95;62.29;100261.72;5030124;28;20049;-65
2022/08/19 05:57:17;;;;;;;16.60;10.30;;;;;;;21.84;62.86;100272.47;5029876;28;20088;-64
2022/08/19 05:59:45;;;;;;;12.68;10.60;;;;;;;21.94;62.63;100281.88;5030887;28;20069;-63
2022/08/19 06:02:13;;;;;;;13.38;11.10;;;;;;;21.79;63.75;100288.72;5031047;28;20528;-65
2022/08/19 06:04:42;;;;;;;11.65;9.38;;;;;;;21.84;63.01;100291.56;5013451;28;20485;-65
2022/08/19 06:07:09;;;;;;;15.75;10.45;;;;;;;21.97;62.21;100284.94;5017691;28;20405;-64
2022/08/19 06:09:39;;;;;;;13.25;9.25;;;;;;;21.88;62.89;100296.53;5030954;28;20049;-65
2022/08/19 06:12:08;;;;;;;16.08;10.55;;;;;;;21.99;63.23;100285.53;5030775;28;20041;-64
2022/08/19 06:14:35;;;;;;;12.77;11.15;;;;;;;22.03;63.33;100280.41;5030708;28;20100;-64
2022/08/19 06:17:07;;;;;;;13.95;11.25;;;;;;;21.95;62.75;100272.63;5029351;28;20049;-65
2022/08/19 06:19:34;;;;;;;15.05;12.70;;;;;;;21.98;63.14;100267.50;5030774;28;20072;-64
2022/08/19 06:22:07;;;;;;;14.27;10.68;;;;;;;22.02;62.01;100267.84;5030599;28;20072;-64
2022/08/19 06:24:35;;;;;;;13.75;12.25;;;;;;;21.90;63.91;100265.16;5028391;28;20053;-64
2022/08/19 06:27:05;;;;;;;14.95;11.40;;;;;;;21.79;63.85;100274.22;5029842;28;20053;-65
2022/08/19 06:29:32;;;;;;;19.10;14.52;;;;;;;21.69;64.59;100274.84;5030475;28;20053;-63
2022/08/19 06:32:02;;;;;;;12.35;10.60;;;;;;;21.71;63.08;100286.38;5029251;28;20060;-64
2022/08/19 06:34:32;;;;;;;16.43;14.37;;;;;;;21.86;63.34;100285.84;5029448;28;20115;-64
2022/08/19 06:37:05;;;;;;;19.17;14.52;;;;;;;21.72;64.36;100290.75;5029663;28;20046;-66
2022/08/19 06:39:35;;;;;;;21.45;12.88;;;;;;;21.86;63.20;100288.56;5030236;28;20550;-65
2022/08/19 06:42:06;;;;;;;17.63;13.10;;;;;;;21.92;63.77;100301.25;5029497;28;20052;-64
2022/08/19 06:44:36;;;;;;;17.45;14.35;;;;;;;21.81;64.56;100315.81;5033806;28;20053;-65
2022/08/19 06:47:11;;;;;;;13.45;11.32;;;;;;;21.74;63.47;100315.91;5017679;28;20096;-65
2022/08/19 06:49:49;;;;;;;18.83;11.95;;;;;;;21.72;62.87;100326.25;5012260;28;20050;-66
2022/08/19 06:52:16;;;;;;;22.55;11.88;;;;;;;21.93;61.93;100326.66;5014594;28;20128;-65
2022/08/19 06:54:42;;;;;;;18.85;12.80;;;;;;;22.18;62.49;100327.09;5013555;28;20073;-65
2022/08/19 06:57:26;;;;;;;16.75;11.70;;;;;;;22.21;62.03;100333.97;5009950;28;20406;-65
2022/08/19 06:59:52;;;;;;;15.18;11.32;;;;;;;22.21;61.23;100332.06;5014056;28;20076;-64
2022/08/19 07:02:20;;;;;;;16.75;13.30;;;;;;;22.40;61.95;100331.84;5012912;28;20058;-64
2022/08/19 07:04:47;;;;;;;15.18;10.90;;;;;;;22.41;60.52;100330.78;5014677;28;20045;-64
2022/08/19 07:07:20;;;;;;;16.60;12.75;;;;;;;22.37;62.27;100314.03;4974079;28;20050;-65
2022/08/19 07:09:49;;;;;;;15.27;11.30;;;;;;;22.32;60.77;100305.75;4987803;28;20050;-64
2022/08/19 07:12:34;;;;;;;19.38;11.30;;;;;;;22.47;60.85;100313.41;4983431;28;20050;-65
2022/08/19 07:15:01;;;;;;;15.88;11.25;;;;;;;22.43;60.81;100301.28;4990783;28;20078;-64
2022/08/19 07:17:28;;;;;;;15.30;11.00;;;;;;;22.36;61.05;100301.47;4992359;28;20046;-67
2022/08/19 07:19:56;;;;;;;18.40;12.63;;;;;;;22.40;61.68;100312.72;4991713;28;20075;-65
2022/08/19 07:22:31;;;;;;;14.85;11.85;;;;;;;22.51;61.33;100306.38;5021302;28;20056;-66
2022/08/19 07:24:57;;;;;;;28.15;11.63;;;;;;;22.51;60.68;100320.03;5034921;28;20560;-64
2022/08/19 07:27:24;;;;;;;21.67;12.32;;;;;;;22.56;60.71;100326.38;5032278;28;20120;-65
2022/08/19 07:29:54;;;;;;;17.83;12.25;;;;;;;22.61;60.33;100331.13;5032408;28;20068;-66
2022/08/19 07:32:26;;;;;;;14.18;11.38;;;;;;;22.64;59.79;100338.84;5031948;28;20045;-66
2022/08/19 07:34:53;;;;;;;23.52;13.02;;;;;;;22.75;59.26;100332.44;5031668;28;20141;-66
2022/08/19 07:37:23;;;;;;;13.98;12.05;;;;;;;22.70;59.39;100350.66;5032622;28;20045;-64
2022/08/19 07:39:53;;;;;;;17.63;11.73;;;;;;;22.73;59.23;100341.97;5032759;28;20112;-65
2022/08/19 07:42:20;;;;;;;15.13;11.73;;;;;;;22.83;59.34;100349.50;5032491;28;20072;-66
2022/08/19 07:44:47;;;;;;;17.35;12.43;;;;;;;22.85;59.98;100347.34;5032606;28;20045;-66
2022/08/19 07:47:17;;;;;;;15.30;13.13;;;;;;;22.75;60.49;100342.56;5032038;28;20049;-66
2022/08/19 07:50:06;;;;;;;19.77;11.93;;;;;;;22.72;60.40;100352.06;5032256;28;20051;-65
2022/08/19 07:52:34;;;;;;;15.63;12.65;;;;;;;22.68;59.61;100353.66;5032226;28;20049;-65
2022/08/19 07:55:03;;;;;;;17.50;13.02;;;;;;;22.88;59.37;100352.28;5032241;28;20132;-65
2022/08/19 07:57:30;;;;;;;22.73;12.68;;;;;;;22.74;59.53;100366.34;5031594;28;20136;-64
2022/08/19 07:59:56;;;;;;;15.75;12.57;;;;;;;22.62;60.04;100373.78;5031618;28;20044;-66
2022/08/19 08:02:23;;;;;;;18.10;12.95;;;;;;;22.49;60.95;100368.66;5031898;28;20128;-65
2022/08/19 08:10:19;;;;;;;14.55;12.13;;;;;;;22.79;60.15;100368.31;5014916;28;20079;-66
2022/08/19 08:12:50;;;;;;;16.58;12.48;;;;;;;22.76;59.68;100385.22;5014647;28;20045;-65
2022/08/19 08:15:38;;;;;;;14.30;12.35;;;;;;;22.85;60.05;100388.38;5012867;28;20057;-65
2022/08/19 08:18:08;;;;;;;18.35;12.77;;;;;;;22.90;59.80;100396.66;5011669;28;20052;-66
2022/08/19 08:20:35;;;;;;;16.52;12.60;;;;;;;22.85;59.91;100396.59;5011635;28;20478;-65
2022/08/19 08:25:48;;;;;;;17.13;13.13;;;;;;;22.84;59.60;100393.00;5012635;28;20042;-65
2022/08/19 08:28:19;;;;;;;22.63;13.38;;;;;;;22.90;59.48;100396.66;5013125;28;20554;-65
2022/08/19 08:30:47;;;;;;;19.00;13.60;;;;;;;22.66;60.22;100402.28;5012563;28;20041;-65
2022/08/19 08:33:19;;;;;;;14.55;13.05;;;;;;;22.79;60.70;100398.41;5012565;28;20136;-66
2022/08/19 08:36:02;;;;;;;17.77;13.45;;;;;;;22.79;59.79;100393.75;5013751;28;20065;-65
2022/08/19 08:38:31;;;;;;;17.05;13.82;;;;;;;22.71;60.38;100396.91;5011861;28;20049;-65
2022/08/19 08:41:27;;;;;;;20.75;13.65;;;;;;;22.76;60.37;100390.69;5012162;28;20045;-65
2022/08/19 08:43:56;;;;;;;26.40;14.73;;;;;;;22.68;60.20;100394.69;5012460;28;20070;-65
2022/08/19 08:46:37;;;;;;;18.67;14.30;;;;;;;22.59;60.49;100403.53;5007849;28;20052;-65
2022/08/19 08:49:31;;;;;;;18.92;14.75;;;;;;;22.67;60.17;100412.16;5011261;28;20375;-65
2022/08/19 08:52:05;;;;;;;17.80;15.02;;;;;;;22.71;60.82;100405.13;5011913;28;20112;-65
2022/08/19 08:54:44;;;;;;;18.73;14.98;;;;;;;22.64;60.28;100401.72;5011806;28;20073;-65
2022/08/19 08:57:28;;;;;;;16.52;14.45;;;;;;;22.65;60.19;100397.06;5012332;28;20052;-65
2022/08/19 09:00:12;;;;;;;16.88;15.07;;;;;;;22.65;61.26;100411.56;5011015;28;20530;-66
2022/08/19 09:02:41;;;;;;;20.05;14.45;;;;;;;22.62;60.62;100413.97;5010592;28;20057;-65
2022/08/19 09:05:12;;;;;;;18.83;15.10;;;;;;;22.59;60.49;100418.03;5010923;28;20516;-65
2022/08/19 09:08:08;;;;;;;21.42;15.32;;;;;;;22.60;60.31;100422.41;5011861;28;20113;-65
2022/08/19 09:10:48;;;;;;;24.63;16.08;;;;;;;22.41;61.29;100415.50;5003298;28;20045;-65
2022/08/19 09:13:39;;;;;;;17.13;15.05;;;;;;;22.50;60.63;100406.69;5020258;28;20147;-65
2022/08/19 09:16:10;;;;;;;19.38;14.77;;;;;;;22.58;60.59;100408.19;5015739;28;20084;-66
2022/08/19 09:18:51;;;;;;;18.27;15.88;;;;;;;22.69;60.19;100404.53;5011341;28;20069;-65
2022/08/19 09:21:20;;;;;;;21.38;15.52;;;;;;;22.64;60.40;100401.72;5011878;28;20046;-66
2022/08/19 09:23:57;;;;;;;23.55;14.77;;;;;;;22.68;60.66;100405.63;5011193;28;20108;-65
2022/08/19 09:26:26;;;;;;;17.20;14.45;;;;;;;22.76;60.42;100398.91;5011865;28;20068;-65
2022/08/19 09:29:13;;;;;;;16.77;14.25;;;;;;;22.87;60.06;100399.88;5012016;28;20061;-65
2022/08/19 09:31:39;;;;;;;19.95;14.07;;;;;;;22.91;59.47;100403.75;4994088;28;20046;-65
2022/08/19 09:34:06;;;;;;;15.43;13.57;;;;;;;22.97;59.58;100398.13;5011435;28;20066;-66
2022/08/19 09:36:46;;;;;;;17.98;13.25;;;;;;;22.71;60.63;100390.63;5003350;28;20056;-65
2022/08/19 09:39:12;;;;;;;16.05;13.77;;;;;;;22.80;60.43;100389.09;5011082;28;20472;-65
2022/08/19 09:41:42;;;;;;;19.52;13.25;;;;;;;22.88;60.40;100398.78;5011104;28;20508;-64
2022/08/19 09:44:14;;;;;;;17.67;12.93;;;;;;;22.84;59.96;100389.44;5011091;28;20076;-65
2022/08/19 09:46:40;;;;;;;18.13;13.70;;;;;;;22.92;60.06;100384.38;5010293;28;20100;-64
2022/08/19 09:49:07;;;;;;;16.23;12.70;;;;;;;22.90;59.97;100383.78;5011155;28;20120;-64
2022/08/19 09:51:34;;;;;;;15.73;13.02;;;;;;;22.88;60.01;100391.44;5010802;28;20133;-65
2022/08/19 09:54:04;;;;;;;18.27;13.35;;;;;;;23.16;59.02;100386.97;5010847;28;20073;-64
2022/08/19 09:56:32;;;;;;;19.30;12.57;;;;;;;23.02;59.23;100400.13;5014229;28;20418;-66
2022/08/19 09:59:00;;;;;;;14.25;12.80;;;;;;;22.89;60.21;100401.28;5013225;28;20308;-65
2022/08/19 10:01:30;;;;;;;15.00;13.40;;;;;;;22.81;60.38;100399.00;5010418;28;20486;-64
2022/08/19 10:03:58;;;;;;;20.95;13.68;;;;;;;22.93;59.49;100402.44;5010705;28;20049;-64
2022/08/19 10:06:29;;;;;;;16.05;12.38;;;;;;;22.94;59.76;100404.09;5010865;28;20401;-64
2022/08/19 10:09:13;;;;;;;16.83;12.93;;;;;;;22.80;60.11;100395.41;5010602;28;20470;-65
2022/08/19 10:11:42;;;;;;;15.70;12.95;;;;;;;22.96;59.65;100396.47;5010498;28;20518;-64
2022/08/19 10:14:22;;;;;;;13.70;12.40;;;;;;;22.96;59.62;100390.19;5011056;28;20057;-64
2022/08/19 10:16:49;;;;;;;19.15;12.73;;;;;;;22.91;59.50;100390.09;5011595;28;20560;-64
2022/08/19 10:19:15;;;;;;;14.55;13.10;;;;;;;22.93;59.85;100387.94;5014574;28;20046;-64
2022/08/19 10:21:52;;;;;;;18.75;13.23;;;;;;;22.93;60.22;100380.56;5014319;28;20053;-64
2022/08/19 10:24:20;;;;;;;14.50;12.38;;;;;;;22.70;60.19;100384.28;5014867;28;20041;-65
2022/08/19 10:26:48;;;;;;;24.55;13.50;;;;;;;22.74;60.18;100387.38;5013722;28;20042;-64
2022/08/19 10:29:27;;;;;;;15.30;12.95;;;;;;;22.95;59.88;100386.63;5014500;28;20089;-65
2022/08/19 10:31:59;;;;;;;18.27;12.98;;;;;;;23.01;59.29;100373.81;5013871;28;20458;-65
2022/08/19 10:34:29;;;;;;;14.30;12.88;;;;;;;23.14;59.11;100383.63;5014914;28;20046;-64
2022/08/19 10:36:57;;;;;;;14.48;11.90;;;;;;;23.03;59.26;100374.41;5013748;28;20461;-65
2022/08/19 10:39:29;;;;;;;15.33;11.70;;;;;;;23.00;59.38;100385.84;5014202;28;20046;-64
2022/08/19 10:41:56;;;;;;;16.05;12.45;;;;;;;23.13;59.05;100387.47;5012616;28;20281;-65
2022/08/19 10:44:23;;;;;;;14.48;11.90;;;;;;;23.21;58.54;100385.09;5015882;28;20572;-65
2022/08/19 10:46:58;;;;;;;13.63;11.07;;;;;;;23.26;58.93;100385.19;5016689;28;20053;-65
2022/08/19 10:49:25;;;;;;;15.20;11.68;;;;;;;23.17;58.80;100389.41;5013477;28;20046;-65
2022/08/19 10:57:33;;;;;;;16.20;11.68;;;;;;;22.91;59.09;100388.19;5014153;28;20046;-65
2022/08/19 11:00:22;;;;;;;14.88;12.02;;;;;;;22.93;59.18;100393.41;5013548;28;20515;-64
2022/08/19 11:02:50;;;;;;;15.23;11.93;;;;;;;22.82;59.45;100391.59;5012888;28;20046;-65
2022/08/19 11:05:18;;;;;;;15.25;11.57;;;;;;;22.75;59.77;100386.31;5013156;28;20073;-65
2022/08/19 11:07:45;;;;;;;12.95;11.43;;;;;;;22.87;59.40;100394.41;5013548;28;20574;-64
2022/08/19 11:10:14;;;;;;;14.30;12.50;;;;;;;22.94;59.62;100395.88;5013087;28;20050;-64
2022/08/19 11:12:47;;;;;;;17.17;11.88;;;;;;;22.85;59.84;100399.31;5013439;28;20041;-65
2022/08/19 11:15:14;;;;;;;14.45;11.73;;;;;;;22.77;59.77;100395.06;5013429;28;20567;-64
2022/08/19 11:17:42;;;;;;;13.25;11.55;;;;;;;22.77;59.49;100400.53;5013264;28;20137;-64
2022/08/19 11:20:12;;;;;;;18.77;12.00;;;;;;;22.78;59.71;100408.50;5012841;28;20121;-64
2022/08/19 11:22:39;;;;;;;13.95;11.80;;;;;;;22.69;59.71;100410.00;5013307;28;20077;-65
2022/08/19 11:25:10;;;;;;;18.92;12.68;;;;;;;22.59;59.88;100400.81;5013677;28;20050;-64
2022/08/19 11:27:44;;;;;;;14.27;11.70;;;;;;;22.78;59.52;100402.22;5012513;28;20422;-64
2022/08/19 11:30:12;;;;;;;16.67;12.00;;;;;;;22.73;59.76;100408.41;5012608;28;20502;-64
2022/08/19 11:32:42;;;;;;;13.43;10.93;;;;;;;22.94;59.13;100406.81;5013242;28;20092;-64
2022/08/19 11:35:15;;;;;;;14.13;12.23;;;;;;;22.66;59.82;100405.03;5012751;28;20083;-65
2022/08/19 11:37:42;;;;;;;22.20;12.30;;;;;;;22.78;59.44;100402.22;5012954;28;20389;-66
2022/08/19 11:40:09;;;;;;;16.83;12.05;;;;;;;22.90;59.69;100405.69;5015690;28;20180;-65
2022/08/19 11:42:55;;;;;;;24.13;11.00;;;;;;;22.86;58.90;100410.00;5014757;28;20050;-66
2022/08/19 11:45:27;;;;;;;13.25;10.68;;;;;;;22.98;59.17;100410.75;5013297;28;20042;-65